sensor_id;sensor_type;location;lat;lon;timestamp;pressure;altitude;pressure_sealevel;temperature;humidity
13407;BME280;6774;48.208;10.766;2024-02-14T00:00:13;96015.88;;;3.65;79.67
13407;BME280;6774;48.208;10.766;2024-02-14T00:02:45;96014.84;;;3.77;79.68
13407;BME280;6774;48.208;10.766;2024-02-14T00:05:16;96023.50;;;3.78;78.94
13407;BME280;6774;48.208;10.766;2024-02-14T00:07:44;96023.22;;;3.81;79.40
13407;BME280;6774;48.208;10.766;2024-02-14T00:10:12;96021.72;;;3.88;78.99
13407;BME280;6774;48.208;10.766;2024-02-14T00:12:40;96019.63;;;3.72;79.04
13407;BME280;6774;48.208;10.766;2024-02-14T00:15:09;96026.91;;;3.68;79.37
13407;BME280;6774;48.208;10.766;2024-02-14T00:17:37;96024.66;;;3.64;79.00
13407;BME280;6774;48.208;10.766;2024-02-14T00:20:07;96022.84;;;3.55;79.78
13407;BME280;6774;48.208;10.766;2024-02-14T00:22:37;96027.63;;;3.40;79.94
13407;BME280;6774;48.208;10.766;2024-02-14T00:25:06;96020.81;;;3.28;80.12
13407;BME280;6774;48.208;10.766;2024-02-14T00:27:35;96023.44;;;3.28;80.23
13407;BME280;6774;48.208;10.766;2024-02-14T00:30:04;96019.44;;;3.24;81.06
13407;BME280;6774;48.208;10.766;2024-02-14T00:32:33;96021.91;;;3.25;80.88
13407;BME280;6774;48.208;10.766;2024-02-14T00:35:02;96022.19;;;3.22;81.06
13407;BME280;6774;48.208;10.766;2024-02-14T00:37:30;96023.81;;;3.23;81.07
13407;BME280;6774;48.208;10.766;2024-02-14T00:40:00;96018.75;;;3.22;81.43
13407;BME280;6774;48.208;10.766;2024-02-14T00:42:28;96025.75;;;3.21;81.44
13407;BME280;6774;48.208;10.766;2024-02-14T00:44:56;96026.56;;;3.22;81.03
13407;BME280;6774;48.208;10.766;2024-02-14T00:47:26;96022.41;;;3.19;81.31
13407;BME280;6774;48.208;10.766;2024-02-14T00:49:56;96035.69;;;3.06;82.09
13407;BME280;6774;48.208;10.766;2024-02-14T00:52:24;96030.00;;;3.01;82.06
13407;BME280;6774;48.208;10.766;2024-02-14T00:54:52;96036.94;;;3.12;81.59
13407;BME280;6774;48.208;10.766;2024-02-14T00:57:20;96026.75;;;3.09;81.75
13407;BME280;6774;48.208;10.766;2024-02-14T00:59:47;96031.91;;;2.99;81.33
13407;BME280;6774;48.208;10.766;2024-02-14T01:02:15;96033.00;;;2.97;81.58
13407;BME280;6774;48.208;10.766;2024-02-14T01:04:44;96030.28;;;2.98;80.90
13407;BME280;6774;48.208;10.766;2024-02-14T01:07:13;96039.56;;;2.91;81.40
13407;BME280;6774;48.208;10.766;2024-02-14T01:09:41;96036.50;;;2.86;82.34
13407;BME280;6774;48.208;10.766;2024-02-14T01:12:09;96046.69;;;2.89;82.25
13407;BME280;6774;48.208;10.766;2024-02-14T01:14:37;96044.19;;;2.88;82.43
13407;BME280;6774;48.208;10.766;2024-02-14T01:17:05;96039.56;;;2.91;82.26
13407;BME280;6774;48.208;10.766;2024-02-14T01:19:33;96052.22;;;2.96;82.23
13407;BME280;6774;48.208;10.766;2024-02-14T01:22:01;96052.84;;;2.88;82.20
13407;BME280;6774;48.208;10.766;2024-02-14T01:24:30;96052.38;;;2.83;82.25
13407;BME280;6774;48.208;10.766;2024-02-14T01:26:58;96055.88;;;2.72;81.74
13407;BME280;6774;48.208;10.766;2024-02-14T01:29:26;96054.63;;;2.67;82.12
13407;BME280;6774;48.208;10.766;2024-02-14T01:31:54;96054.16;;;2.62;82.00
13407;BME280;6774;48.208;10.766;2024-02-14T01:34:22;96057.72;;;2.61;82.01
13407;BME280;6774;48.208;10.766;2024-02-14T01:36:50;96046.41;;;2.50;82.39
13407;BME280;6774;48.208;10.766;2024-02-14T01:39:18;96050.31;;;2.45;82.65
13407;BME280;6774;48.208;10.766;2024-02-14T01:41:48;96054.47;;;2.47;83.08
13407;BME280;6774;48.208;10.766;2024-02-14T01:44:18;96060.38;;;2.49;82.50
13407;BME280;6774;48.208;10.766;2024-02-14T01:46:47;96057.31;;;2.44;82.77
13407;BME280;6774;48.208;10.766;2024-02-14T01:49:15;96054.13;;;2.41;82.68
13407;BME280;6774;48.208;10.766;2024-02-14T01:51:45;96047.88;;;2.32;82.19
13407;BME280;6774;48.208;10.766;2024-02-14T01:54:14;96050.03;;;2.27;82.39
13407;BME280;6774;48.208;10.766;2024-02-14T01:56:44;96050.53;;;2.21;82.62
13407;BME280;6774;48.208;10.766;2024-02-14T01:59:14;96045.56;;;2.18;82.89
13407;BME280;6774;48.208;10.766;2024-02-14T02:01:43;96048.88;;;2.20;82.85
13407;BME280;6774;48.208;10.766;2024-02-14T02:04:11;96045.06;;;2.24;83.00
13407;BME280;6774;48.208;10.766;2024-02-14T02:06:39;96048.16;;;2.29;83.58
13407;BME280;6774;48.208;10.766;2024-02-14T02:09:08;96049.06;;;2.39;83.43
13407;BME280;6774;48.208;10.766;2024-02-14T02:11:42;96043.66;;;2.52;83.17
13407;BME280;6774;48.208;10.766;2024-02-14T02:14:10;96044.69;;;2.61;82.84
13407;BME280;6774;48.208;10.766;2024-02-14T02:16:40;96045.97;;;2.66;82.55
13407;BME280;6774;48.208;10.766;2024-02-14T02:19:08;96036.88;;;2.61;82.47
13407;BME280;6774;48.208;10.766;2024-02-14T02:21:36;96041.00;;;2.63;82.11
13407;BME280;6774;48.208;10.766;2024-02-14T02:24:06;96038.31;;;2.53;82.44
13407;BME280;6774;48.208;10.766;2024-02-14T02:26:34;96043.31;;;2.45;82.87
13407;BME280;6774;48.208;10.766;2024-02-14T02:29:02;96038.72;;;2.49;83.09
13407;BME280;6774;48.208;10.766;2024-02-14T02:31:31;96035.91;;;2.62;83.06
13407;BME280;6774;48.208;10.766;2024-02-14T02:33:59;96035.03;;;2.72;82.69
13407;BME280;6774;48.208;10.766;2024-02-14T02:36:27;96038.66;;;2.81;81.76
13407;BME280;6774;48.208;10.766;2024-02-14T02:38:56;96031.53;;;2.83;82.07
13407;BME280;6774;48.208;10.766;2024-02-14T02:41:28;96032.56;;;2.71;81.46
13407;BME280;6774;48.208;10.766;2024-02-14T02:43:56;96023.97;;;2.80;82.13
13407;BME280;6774;48.208;10.766;2024-02-14T02:46:23;96033.25;;;2.73;80.63
13407;BME280;6774;48.208;10.766;2024-02-14T02:48:52;96030.78;;;2.71;81.24
13407;BME280;6774;48.208;10.766;2024-02-14T02:51:21;96033.31;;;2.62;80.38
13407;BME280;6774;48.208;10.766;2024-02-14T02:53:49;96038.88;;;2.36;80.43
13407;BME280;6774;48.208;10.766;2024-02-14T02:56:18;96039.81;;;2.35;80.58
13407;BME280;6774;48.208;10.766;2024-02-14T02:58:49;96045.75;;;2.26;81.04
13407;BME280;6774;48.208;10.766;2024-02-14T03:01:17;96041.78;;;2.22;80.74
13407;BME280;6774;48.208;10.766;2024-02-14T03:03:45;96040.59;;;2.15;80.85
13407;BME280;6774;48.208;10.766;2024-02-14T03:06:13;96037.88;;;2.16;81.39
13407;BME280;6774;48.208;10.766;2024-02-14T03:08:41;96042.25;;;2.16;81.35
13407;BME280;6774;48.208;10.766;2024-02-14T03:11:10;96042.94;;;2.18;80.97
13407;BME280;6774;48.208;10.766;2024-02-14T03:13:37;96039.66;;;2.16;81.86
13407;BME280;6774;48.208;10.766;2024-02-14T03:16:08;96037.53;;;2.10;82.01
13407;BME280;6774;48.208;10.766;2024-02-14T03:18:37;96032.56;;;2.07;82.75
13407;BME280;6774;48.208;10.766;2024-02-14T03:21:05;96029.97;;;2.07;83.17
13407;BME280;6774;48.208;10.766;2024-02-14T03:23:34;96026.47;;;2.28;83.85
13407;BME280;6774;48.208;10.766;2024-02-14T03:26:01;96014.50;;;2.58;82.16
13407;BME280;6774;48.208;10.766;2024-02-14T03:28:33;96014.66;;;2.77;81.18
13407;BME280;6774;48.208;10.766;2024-02-14T03:31:01;96000.63;;;2.99;80.09
13407;BME280;6774;48.208;10.766;2024-02-14T03:33:31;96002.84;;;3.25;79.50
13407;BME280;6774;48.208;10.766;2024-02-14T03:35:59;96014.31;;;3.43;78.67
13407;BME280;6774;48.208;10.766;2024-02-14T03:38:27;96027.13;;;3.56;78.40
13407;BME280;6774;48.208;10.766;2024-02-14T03:40:56;96026.31;;;3.65;77.89
13407;BME280;6774;48.208;10.766;2024-02-14T03:43:23;96020.19;;;3.76;77.36
13407;BME280;6774;48.208;10.766;2024-02-14T03:45:51;96025.69;;;3.82;77.10
13407;BME280;6774;48.208;10.766;2024-02-14T03:48:19;96033.78;;;3.69;77.64
13407;BME280;6774;48.208;10.766;2024-02-14T03:50:49;96035.16;;;3.74;77.98
13407;BME280;6774;48.208;10.766;2024-02-14T03:53:16;96032.53;;;3.74;78.26
13407;BME280;6774;48.208;10.766;2024-02-14T03:55:44;96027.34;;;3.83;77.55
13407;BME280;6774;48.208;10.766;2024-02-14T03:58:12;96024.75;;;3.93;76.34
13407;BME280;6774;48.208;10.766;2024-02-14T04:00:41;96027.53;;;4.01;76.28
13407;BME280;6774;48.208;10.766;2024-02-14T04:03:11;96030.44;;;4.08;75.63
13407;BME280;6774;48.208;10.766;2024-02-14T04:05:39;96027.44;;;4.12;75.38
13407;BME280;6774;48.208;10.766;2024-02-14T04:08:09;96026.03;;;4.18;74.94
13407;BME280;6774;48.208;10.766;2024-02-14T04:10:37;96023.84;;;4.13;74.80
13407;BME280;6774;48.208;10.766;2024-02-14T04:13:05;96021.66;;;4.18;74.46
13407;BME280;6774;48.208;10.766;2024-02-14T04:15:33;96028.78;;;4.16;74.57
13407;BME280;6774;48.208;10.766;2024-02-14T04:18:01;96023.56;;;4.16;74.81
13407;BME280;6774;48.208;10.766;2024-02-14T04:20:33;96040.47;;;4.03;75.23
13407;BME280;6774;48.208;10.766;2024-02-14T04:23:01;96030.88;;;3.72;76.50
13407;BME280;6774;48.208;10.766;2024-02-14T04:25:31;96036.63;;;3.57;77.51
13407;BME280;6774;48.208;10.766;2024-02-14T04:27:59;96037.09;;;3.41;78.38
13407;BME280;6774;48.208;10.766;2024-02-14T04:30:26;96023.88;;;3.33;79.32
13407;BME280;6774;48.208;10.766;2024-02-14T04:32:54;96026.13;;;3.47;79.09
13407;BME280;6774;48.208;10.766;2024-02-14T04:35:22;96023.44;;;3.58;78.72
13407;BME280;6774;48.208;10.766;2024-02-14T04:37:50;96013.56;;;3.71;78.01
13407;BME280;6774;48.208;10.766;2024-02-14T04:40:19;96036.09;;;3.72;78.50
13407;BME280;6774;48.208;10.766;2024-02-14T04:42:48;96035.59;;;3.79;78.26
13407;BME280;6774;48.208;10.766;2024-02-14T04:45:16;96041.91;;;3.76;78.98
13407;BME280;6774;48.208;10.766;2024-02-14T04:47:44;96047.09;;;3.66;78.73
13407;BME280;6774;48.208;10.766;2024-02-14T04:50:12;96043.75;;;3.64;78.71
13407;BME280;6774;48.208;10.766;2024-02-14T04:52:40;96046.59;;;3.52;79.91
13407;BME280;6774;48.208;10.766;2024-02-14T04:55:08;96048.41;;;3.51;79.69
13407;BME280;6774;48.208;10.766;2024-02-14T04:57:36;96028.22;;;3.53;79.88
13407;BME280;6774;48.208;10.766;2024-02-14T05:00:06;96037.44;;;3.57;79.66
13407;BME280;6774;48.208;10.766;2024-02-14T05:02:35;96028.66;;;3.58;80.23
13407;BME280;6774;48.208;10.766;2024-02-14T05:05:04;96019.06;;;3.68;80.16
13407;BME280;6774;48.208;10.766;2024-02-14T05:07:32;96019.91;;;3.79;79.58
13407;BME280;6774;48.208;10.766;2024-02-14T05:10:00;96033.66;;;3.81;80.16
13407;BME280;6774;48.208;10.766;2024-02-14T05:12:28;96038.88;;;3.81;80.97
13407;BME280;6774;48.208;10.766;2024-02-14T05:14:55;96042.91;;;3.85;80.45
13407;BME280;6774;48.208;10.766;2024-02-14T05:17:24;96046.06;;;3.88;80.72
13407;BME280;6774;48.208;10.766;2024-02-14T05:19:52;96042.75;;;3.86;80.42
13407;BME280;6774;48.208;10.766;2024-02-14T05:22:20;96040.97;;;3.87;80.14
13407;BME280;6774;48.208;10.766;2024-02-14T05:24:49;96050.28;;;3.80;80.37
13407;BME280;6774;48.208;10.766;2024-02-14T05:27:17;96049.84;;;3.75;81.21
13407;BME280;6774;48.208;10.766;2024-02-14T05:29:44;96042.72;;;3.77;80.64
13407;BME280;6774;48.208;10.766;2024-02-14T05:32:12;96043.00;;;3.83;80.63
13407;BME280;6774;48.208;10.766;2024-02-14T05:34:41;96037.56;;;3.96;80.36
13407;BME280;6774;48.208;10.766;2024-02-14T05:37:09;96039.09;;;4.08;80.30
13407;BME280;6774;48.208;10.766;2024-02-14T05:39:37;96035.97;;;4.34;78.87
13407;BME280;6774;48.208;10.766;2024-02-14T05:42:05;96042.03;;;4.44;78.12
13407;BME280;6774;48.208;10.766;2024-02-14T05:44:33;96040.22;;;4.35;78.34
13407;BME280;6774;48.208;10.766;2024-02-14T05:47:01;96046.84;;;4.48;78.50
13407;BME280;6774;48.208;10.766;2024-02-14T05:49:28;96039.00;;;4.68;78.09
13407;BME280;6774;48.208;10.766;2024-02-14T05:51:58;96051.94;;;4.89;77.20
13407;BME280;6774;48.208;10.766;2024-02-14T05:54:26;96049.72;;;5.03;77.10
13407;BME280;6774;48.208;10.766;2024-02-14T05:56:53;96049.97;;;5.00;76.56
13407;BME280;6774;48.208;10.766;2024-02-14T05:59:21;96050.00;;;4.91;77.12
13407;BME280;6774;48.208;10.766;2024-02-14T06:01:50;96040.09;;;5.04;76.88
13407;BME280;6774;48.208;10.766;2024-02-14T06:04:17;96031.00;;;4.98;76.47
13407;BME280;6774;48.208;10.766;2024-02-14T06:06:45;96040.31;;;5.10;76.34
13407;BME280;6774;48.208;10.766;2024-02-14T06:09:14;96033.94;;;5.32;74.76
13407;BME280;6774;48.208;10.766;2024-02-14T06:11:42;96042.72;;;5.51;73.63
13407;BME280;6774;48.208;10.766;2024-02-14T06:14:10;96045.72;;;5.56;74.25
13407;BME280;6774;48.208;10.766;2024-02-14T06:16:39;96038.53;;;5.67;74.36
13407;BME280;6774;48.208;10.766;2024-02-14T06:19:06;96041.22;;;5.76;73.94
13407;BME280;6774;48.208;10.766;2024-02-14T06:21:35;96041.19;;;5.95;72.84
13407;BME280;6774;48.208;10.766;2024-02-14T06:24:03;96051.31;;;6.08;71.79
13407;BME280;6774;48.208;10.766;2024-02-14T06:26:33;96052.94;;;6.09;72.44
13407;BME280;6774;48.208;10.766;2024-02-14T06:29:01;96069.63;;;6.08;73.70
13407;BME280;6774;48.208;10.766;2024-02-14T06:31:33;96078.06;;;6.02;73.26
13407;BME280;6774;48.208;10.766;2024-02-14T06:34:00;96078.84;;;6.12;73.89
13407;BME280;6774;48.208;10.766;2024-02-14T06:36:28;96073.84;;;6.18;72.48
13407;BME280;6774;48.208;10.766;2024-02-14T06:38:56;96069.63;;;6.35;70.77
13407;BME280;6774;48.208;10.766;2024-02-14T06:41:24;96080.28;;;6.51;70.27
13407;BME280;6774;48.208;10.766;2024-02-14T06:43:54;96083.97;;;6.59;70.63
13407;BME280;6774;48.208;10.766;2024-02-14T06:46:21;96092.66;;;6.59;70.24
13407;BME280;6774;48.208;10.766;2024-02-14T06:48:49;96079.59;;;6.67;70.22
13407;BME280;6774;48.208;10.766;2024-02-14T06:51:17;96099.63;;;6.50;71.11
13407;BME280;6774;48.208;10.766;2024-02-14T06:53:46;96090.63;;;6.53;71.01
13407;BME280;6774;48.208;10.766;2024-02-14T06:56:14;96095.06;;;6.25;70.72
13407;BME280;6774;48.208;10.766;2024-02-14T06:58:42;96091.16;;;6.29;71.49
13407;BME280;6774;48.208;10.766;2024-02-14T07:01:12;96102.88;;;6.35;71.88
13407;BME280;6774;48.208;10.766;2024-02-14T07:03:41;96097.41;;;6.46;72.14
13407;BME280;6774;48.208;10.766;2024-02-14T07:06:11;96101.53;;;6.48;71.70
13407;BME280;6774;48.208;10.766;2024-02-14T07:08:40;96101.16;;;6.43;71.73
13407;BME280;6774;48.208;10.766;2024-02-14T07:11:08;96101.53;;;6.48;70.98
13407;BME280;6774;48.208;10.766;2024-02-14T07:13:36;96104.84;;;6.50;71.98
13407;BME280;6774;48.208;10.766;2024-02-14T07:16:04;96102.59;;;6.55;70.79
13407;BME280;6774;48.208;10.766;2024-02-14T07:18:37;96110.56;;;6.64;71.12
13407;BME280;6774;48.208;10.766;2024-02-14T07:21:05;96097.84;;;6.87;70.78
13407;BME280;6774;48.208;10.766;2024-02-14T07:23:33;96107.34;;;6.70;70.44
13407;BME280;6774;48.208;10.766;2024-02-14T07:26:01;96108.84;;;6.72;69.59
13407;BME280;6774;48.208;10.766;2024-02-14T07:28:29;96109.06;;;6.79;69.86
13407;BME280;6774;48.208;10.766;2024-02-14T07:30:58;96109.31;;;6.68;70.13
13407;BME280;6774;48.208;10.766;2024-02-14T07:33:25;96111.97;;;6.94;69.08
13407;BME280;6774;48.208;10.766;2024-02-14T07:35:55;96117.31;;;7.02;69.48
13407;BME280;6774;48.208;10.766;2024-02-14T07:38:22;96110.53;;;7.35;70.08
13407;BME280;6774;48.208;10.766;2024-02-14T07:40:50;96113.41;;;7.50;68.29
13407;BME280;6774;48.208;10.766;2024-02-14T07:43:18;96111.19;;;7.37;69.42
13407;BME280;6774;48.208;10.766;2024-02-14T07:45:46;96108.69;;;7.53;69.17
13407;BME280;6774;48.208;10.766;2024-02-14T07:48:14;96119.09;;;7.63;67.58
13407;BME280;6774;48.208;10.766;2024-02-14T07:50:42;96113.38;;;7.67;67.00
13407;BME280;6774;48.208;10.766;2024-02-14T07:53:11;96110.19;;;7.82;65.90
13407;BME280;6774;48.208;10.766;2024-02-14T07:55:39;96116.19;;;8.00;67.66
13407;BME280;6774;48.208;10.766;2024-02-14T07:58:08;96116.56;;;8.05;67.71
13407;BME280;6774;48.208;10.766;2024-02-14T08:00:35;96120.84;;;8.06;66.61
13407;BME280;6774;48.208;10.766;2024-02-14T08:03:03;96117.72;;;8.11;65.74
13407;BME280;6774;48.208;10.766;2024-02-14T08:05:32;96111.53;;;8.20;66.04
13407;BME280;6774;48.208;10.766;2024-02-14T08:08:00;96127.63;;;8.17;66.48
13407;BME280;6774;48.208;10.766;2024-02-14T08:10:29;96126.19;;;8.31;64.38
13407;BME280;6774;48.208;10.766;2024-02-14T08:12:58;96124.34;;;8.57;64.49
13407;BME280;6774;48.208;10.766;2024-02-14T08:15:26;96123.72;;;8.63;64.25
13407;BME280;6774;48.208;10.766;2024-02-14T08:17:54;96124.72;;;8.87;64.12
13407;BME280;6774;48.208;10.766;2024-02-14T08:20:28;96122.66;;;9.06;64.61
13407;BME280;6774;48.208;10.766;2024-02-14T08:22:56;96115.72;;;9.13;64.18
13407;BME280;6774;48.208;10.766;2024-02-14T08:25:23;96108.81;;;9.29;63.89
13407;BME280;6774;48.208;10.766;2024-02-14T08:27:52;96101.28;;;9.34;64.63
13407;BME280;6774;48.208;10.766;2024-02-14T08:30:20;96097.78;;;9.41;64.50
13407;BME280;6774;48.208;10.766;2024-02-14T08:32:48;96094.00;;;9.44;63.34
13407;BME280;6774;48.208;10.766;2024-02-14T08:35:17;96094.31;;;9.65;63.65
13407;BME280;6774;48.208;10.766;2024-02-14T08:37:45;96101.56;;;9.63;63.04
13407;BME280;6774;48.208;10.766;2024-02-14T08:40:13;96105.03;;;9.56;65.30
13407;BME280;6774;48.208;10.766;2024-02-14T08:42:40;96100.75;;;9.55;64.68
13407;BME280;6774;48.208;10.766;2024-02-14T08:45:10;96103.03;;;9.66;64.32
13407;BME280;6774;48.208;10.766;2024-02-14T08:47:38;96102.38;;;9.80;64.70
13407;BME280;6774;48.208;10.766;2024-02-14T08:50:06;96103.00;;;9.90;64.36
13407;BME280;6774;48.208;10.766;2024-02-14T08:52:35;96098.34;;;10.09;63.72
13407;BME280;6774;48.208;10.766;2024-02-14T08:55:05;96099.38;;;9.91;63.01
13407;BME280;6774;48.208;10.766;2024-02-14T08:57:37;96094.91;;;9.92;62.60
13407;BME280;6774;48.208;10.766;2024-02-14T09:00:06;96097.41;;;9.85;63.15
13407;BME280;6774;48.208;10.766;2024-02-14T09:02:35;96095.72;;;9.92;62.69
13407;BME280;6774;48.208;10.766;2024-02-14T09:05:04;96097.47;;;10.16;63.40
13407;BME280;6774;48.208;10.766;2024-02-14T09:07:32;96092.59;;;10.52;63.72
13407;BME280;6774;48.208;10.766;2024-02-14T09:10:00;96095.78;;;10.94;61.04
13407;BME280;6774;48.208;10.766;2024-02-14T09:12:28;96094.13;;;11.61;59.14
13407;BME280;6774;48.208;10.766;2024-02-14T09:14:56;96088.78;;;12.14;59.32
13407;BME280;6774;48.208;10.766;2024-02-14T09:17:24;96080.72;;;12.88;57.45
13407;BME280;6774;48.208;10.766;2024-02-14T09:19:53;96071.47;;;13.90;53.79
13407;BME280;6774;48.208;10.766;2024-02-14T09:22:21;96078.34;;;13.85;53.54
13407;BME280;6774;48.208;10.766;2024-02-14T09:24:50;96078.00;;;13.94;52.55
13407;BME280;6774;48.208;10.766;2024-02-14T09:27:19;96069.19;;;14.22;50.83
13407;BME280;6774;48.208;10.766;2024-02-14T09:29:47;96068.97;;;14.23;52.91
13407;BME280;6774;48.208;10.766;2024-02-14T09:32:15;96069.03;;;13.95;53.14
13407;BME280;6774;48.208;10.766;2024-02-14T09:34:43;96071.41;;;13.84;54.73
13407;BME280;6774;48.208;10.766;2024-02-14T09:37:14;96077.09;;;13.53;55.47
13407;BME280;6774;48.208;10.766;2024-02-14T09:39:43;96084.91;;;12.97;57.14
13407;BME280;6774;48.208;10.766;2024-02-14T09:42:13;96079.56;;;12.90;57.73
13407;BME280;6774;48.208;10.766;2024-02-14T09:44:43;96088.75;;;13.16;56.95
13407;BME280;6774;48.208;10.766;2024-02-14T09:47:13;96079.94;;;13.79;55.88
13407;BME280;6774;48.208;10.766;2024-02-14T09:49:43;96086.34;;;14.19;54.70
13407;BME280;6774;48.208;10.766;2024-02-14T09:52:13;96090.72;;;14.88;53.50
13407;BME280;6774;48.208;10.766;2024-02-14T09:54:43;96078.78;;;16.11;49.83
13407;BME280;6774;48.208;10.766;2024-02-14T09:57:11;96083.72;;;16.01;49.78
13407;BME280;6774;48.208;10.766;2024-02-14T09:59:43;96075.25;;;16.17;48.63
13407;BME280;6774;48.208;10.766;2024-02-14T10:02:12;96079.41;;;15.87;50.58
13407;BME280;6774;48.208;10.766;2024-02-14T10:04:40;96077.94;;;16.11;49.71
13407;BME280;6774;48.208;10.766;2024-02-14T10:07:08;96076.13;;;15.72;49.79
13407;BME280;6774;48.208;10.766;2024-02-14T10:09:41;96078.53;;;15.27;49.68
13407;BME280;6774;48.208;10.766;2024-02-14T10:12:09;96079.03;;;15.63;49.77
13407;BME280;6774;48.208;10.766;2024-02-14T10:14:37;96073.13;;;14.74;53.14
13407;BME280;6774;48.208;10.766;2024-02-14T10:17:05;96070.78;;;15.19;52.99
13407;BME280;6774;48.208;10.766;2024-02-14T10:19:34;96064.22;;;13.50;55.71
13407;BME280;6774;48.208;10.766;2024-02-14T10:22:02;96071.53;;;13.05;57.09
13407;BME280;6774;48.208;10.766;2024-02-14T10:24:32;96089.38;;;12.60;59.39
13407;BME280;6774;48.208;10.766;2024-02-14T10:27:01;96089.34;;;12.24;59.67
13407;BME280;6774;48.208;10.766;2024-02-14T10:29:29;96077.75;;;11.81;60.37
13407;BME280;6774;48.208;10.766;2024-02-14T10:31:57;96081.53;;;11.63;59.55
13407;BME280;6774;48.208;10.766;2024-02-14T10:34:25;96081.97;;;11.90;62.50
13407;BME280;6774;48.208;10.766;2024-02-14T10:36:56;96088.34;;;11.81;61.56
13407;BME280;6774;48.208;10.766;2024-02-14T10:39:25;96078.97;;;11.70;62.03
13407;BME280;6774;48.208;10.766;2024-02-14T10:41:53;96086.25;;;11.53;60.09
13407;BME280;6774;48.208;10.766;2024-02-14T10:44:22;96076.75;;;11.96;59.92
13407;BME280;6774;48.208;10.766;2024-02-14T10:46:52;96079.72;;;11.79;60.15
13407;BME280;6774;48.208;10.766;2024-02-14T10:49:20;96090.66;;;11.76;59.67
13407;BME280;6774;48.208;10.766;2024-02-14T10:51:51;96078.34;;;11.68;59.35
13407;BME280;6774;48.208;10.766;2024-02-14T10:54:20;96065.84;;;11.77;59.09
13407;BME280;6774;48.208;10.766;2024-02-14T10:56:49;96075.69;;;11.68;59.63
13407;BME280;6774;48.208;10.766;2024-02-14T10:59:20;96075.13;;;11.81;60.59
13407;BME280;6774;48.208;10.766;2024-02-14T11:01:51;96076.81;;;11.74;61.82
13407;BME280;6774;48.208;10.766;2024-02-14T11:04:19;96075.75;;;11.83;61.34
13407;BME280;6774;48.208;10.766;2024-02-14T11:06:48;96088.25;;;12.04;60.93
13407;BME280;6774;48.208;10.766;2024-02-14T11:09:16;96082.69;;;12.13;60.17
13407;BME280;6774;48.208;10.766;2024-02-14T11:11:45;96085.78;;;12.32;58.59
13407;BME280;6774;48.208;10.766;2024-02-14T11:14:15;96080.75;;;12.37;59.77
13407;BME280;6774;48.208;10.766;2024-02-14T11:16:45;96080.47;;;12.32;59.25
13407;BME280;6774;48.208;10.766;2024-02-14T11:19:14;96071.75;;;12.89;58.82
13407;BME280;6774;48.208;10.766;2024-02-14T11:21:46;96076.47;;;13.08;59.50
13407;BME280;6774;48.208;10.766;2024-02-14T11:24:16;96064.59;;;13.47;54.70
13407;BME280;6774;48.208;10.766;2024-02-14T11:26:48;96058.06;;;13.21;57.52
13407;BME280;6774;48.208;10.766;2024-02-14T11:29:19;96064.47;;;13.33;56.69
13407;BME280;6774;48.208;10.766;2024-02-14T11:31:57;96051.88;;;13.35;56.18
13407;BME280;6774;48.208;10.766;2024-02-14T11:34:27;96060.72;;;13.21;56.72
13407;BME280;6774;48.208;10.766;2024-02-14T11:36:55;96066.66;;;12.87;58.50
13407;BME280;6774;48.208;10.766;2024-02-14T11:39:23;96071.22;;;13.15;57.28
13407;BME280;6774;48.208;10.766;2024-02-14T11:41:50;96071.28;;;13.00;58.90
13407;BME280;6774;48.208;10.766;2024-02-14T11:44:19;96074.19;;;12.84;59.45
13407;BME280;6774;48.208;10.766;2024-02-14T11:46:48;96079.31;;;12.70;59.08
13407;BME280;6774;48.208;10.766;2024-02-14T11:49:16;96075.63;;;12.50;59.48
13407;BME280;6774;48.208;10.766;2024-02-14T11:51:46;96068.72;;;12.70;61.09
13407;BME280;6774;48.208;10.766;2024-02-14T11:54:15;96067.94;;;12.91;60.46
13407;BME280;6774;48.208;10.766;2024-02-14T11:56:44;96072.94;;;13.01;60.70
13407;BME280;6774;48.208;10.766;2024-02-14T11:59:12;96072.81;;;13.09;59.84
13407;BME280;6774;48.208;10.766;2024-02-14T12:01:42;96064.47;;;12.91;60.19
13407;BME280;6774;48.208;10.766;2024-02-14T12:04:10;96069.63;;;12.77;61.55
13407;BME280;6774;48.208;10.766;2024-02-14T12:06:39;96083.38;;;12.88;63.23
13407;BME280;6774;48.208;10.766;2024-02-14T12:09:11;96078.69;;;12.68;63.16
13407;BME280;6774;48.208;10.766;2024-02-14T12:11:41;96073.56;;;12.31;63.61
13407;BME280;6774;48.208;10.766;2024-02-14T12:14:10;96069.25;;;12.44;64.23
13407;BME280;6774;48.208;10.766;2024-02-14T12:16:38;96056.19;;;12.43;64.07
13407;BME280;6774;48.208;10.766;2024-02-14T12:19:08;96066.84;;;12.64;63.42
13407;BME280;6774;48.208;10.766;2024-02-14T12:21:38;96056.94;;;13.16;63.16
13407;BME280;6774;48.208;10.766;2024-02-14T12:24:07;96047.63;;;13.69;60.87
13407;BME280;6774;48.208;10.766;2024-02-14T12:26:38;96042.03;;;13.29;61.04
13407;BME280;6774;48.208;10.766;2024-02-14T12:29:07;96043.50;;;13.60;61.70
13407;BME280;6774;48.208;10.766;2024-02-14T12:31:37;96031.69;;;13.62;60.57
13407;BME280;6774;48.208;10.766;2024-02-14T12:34:04;96048.38;;;13.14;60.83
13407;BME280;6774;48.208;10.766;2024-02-14T12:36:33;96037.72;;;13.07;61.60
13407;BME280;6774;48.208;10.766;2024-02-14T12:39:02;96041.03;;;13.30;61.87
13407;BME280;6774;48.208;10.766;2024-02-14T12:41:30;96047.34;;;13.08;62.33
13407;BME280;6774;48.208;10.766;2024-02-14T12:44:00;96058.06;;;13.00;62.10
13407;BME280;6774;48.208;10.766;2024-02-14T12:46:27;96048.34;;;12.71;62.28
13407;BME280;6774;48.208;10.766;2024-02-14T12:48:56;96056.38;;;13.35;61.45
13407;BME280;6774;48.208;10.766;2024-02-14T12:51:24;96040.56;;;14.11;58.98
13407;BME280;6774;48.208;10.766;2024-02-14T12:53:55;96052.06;;;14.31;58.75
13407;BME280;6774;48.208;10.766;2024-02-14T12:56:24;96035.66;;;13.80;60.33
13407;BME280;6774;48.208;10.766;2024-02-14T12:58:52;96043.94;;;13.98;60.39
13407;BME280;6774;48.208;10.766;2024-02-14T13:01:21;96051.13;;;14.04;60.16
13407;BME280;6774;48.208;10.766;2024-02-14T13:03:49;96051.22;;;13.55;61.69
13407;BME280;6774;48.208;10.766;2024-02-14T13:06:17;96043.59;;;13.73;62.95
13407;BME280;6774;48.208;10.766;2024-02-14T13:08:45;96047.59;;;13.90;64.07
13407;BME280;6774;48.208;10.766;2024-02-14T13:11:13;96039.66;;;13.97;61.80
13407;BME280;6774;48.208;10.766;2024-02-14T13:13:45;96057.38;;;13.90;63.32